Nassogne, Belgium
Current Conditions -  °F | °C
As of 7:25 AM on Thursday 27 Nov 2014 (Local Time) from EBFS Reporting Station
Broken Clouds Broken Clouds  
Wind Chill: 41°   Ceiling: 500
Heat Index: 45°   Visibility: 4mi
Dew Point: 45°   Wind: 7mph
Humidity: 100%   Direction: 130°SE
Pressure: 29.74"   Gusts: NA
Location:  50.13°N, 5.34°E
Report Text: EBFS 270625Z 13006KT 6000 FEW002 BKN005 BKN040 07/07 Q1007 YLO AMB TEMPO YLO
Loading
Personal Weather Stations






























Interactive Weather Map New forecast layout! Learn more

10-Day Weather Forecast

Advertisements
Track Severe Weather on mobile